JA1403 WAMM-RPLC
Flight info
| Callsign | JA1403 |
|---|---|
| Flight time | 2h 15m |
| Altitude | 38000 |
| Route | BONDA A461 SAJ W3 LUBAN B591 SBA TR24 KIBOK |
| Aircraft | A320/M-SDE3FGHIRWY/LB1 |
Departure
| Time | 2026-04-30 20:32 |
|---|---|
| Airport | Sam Ratulangi International Airport (WAMM) |
Arrival
| Time | 2026-04-30 22:47 |
|---|---|
| Airport | Clark International Airport / Clark Air Base (RPLC) |
| Time | Latitude | Longitude | Altitude | Speed | Heading |
|---|---|---|---|---|---|
| 2026-04-30 19:57 | 1.54470 | 124.92342 | 336 ft | 0 kts | 272° |
| 2026-04-30 20:23 | 1.54470 | 124.92356 | 332 ft | 4 kts | 270° |
| 2026-04-30 20:23 | 1.54470 | 124.92383 | 333 ft | 4 kts | 267° |
| 2026-04-30 20:24 | 1.54472 | 124.92410 | 331 ft | 4 kts | 261° |
| 2026-04-30 20:24 | 1.54479 | 124.92436 | 332 ft | 4 kts | 241° |
| 2026-04-30 20:24 | 1.54494 | 124.92452 | 333 ft | 2 kts | 184° |
| 2026-04-30 20:24 | 1.54500 | 124.92452 | 332 ft | 0 kts | 183° |
| 2026-04-30 20:27 | 1.54498 | 124.92452 | 332 ft | 1 kts | 183° |
| 2026-04-30 20:28 | 1.54400 | 124.92434 | 335 ft | 10 kts | 204° |
| 2026-04-30 20:28 | 1.54237 | 124.92415 | 336 ft | 16 kts | 182° |
| 2026-04-30 20:29 | 1.54014 | 124.92410 | 336 ft | 11 kts | 165° |
| 2026-04-30 20:30 | 1.53747 | 124.92461 | 335 ft | 14 kts | 110° |
| 2026-04-30 20:30 | 1.53744 | 124.92502 | 336 ft | 6 kts | 93° |
| 2026-04-30 20:31 | 1.53871 | 124.92597 | 337 ft | 8 kts | 1° |
| 2026-04-30 20:32 | 1.55788 | 124.92657 | 456 ft | 165 kts | 2° |
| 2026-04-30 20:32 | 1.58074 | 124.92675 | 1812 ft | 165 kts | 359° |
| 2026-04-30 20:33 | 1.59315 | 124.92414 | 1911 ft | 199 kts | 333° |
| 2026-04-30 20:33 | 1.60846 | 124.90168 | 3148 ft | 204 kts | 289° |
| 2026-04-30 20:33 | 1.61275 | 124.88826 | 3829 ft | 202 kts | 289° |
| 2026-04-30 20:34 | 1.62119 | 124.86109 | 5004 ft | 207 kts | 288° |
| 2026-04-30 20:34 | 1.63067 | 124.83389 | 6148 ft | 208 kts | 299° |
| 2026-04-30 20:35 | 1.63895 | 124.82166 | 6479 ft | 223 kts | 311° |
| 2026-04-30 20:35 | 1.65066 | 124.81029 | 6684 ft | 247 kts | 321° |
| 2026-04-30 20:35 | 1.68229 | 124.79069 | 7510 ft | 282 kts | 332° |
| 2026-04-30 20:36 | 1.69975 | 124.78142 | 8238 ft | 286 kts | 332° |
| 2026-04-30 20:36 | 1.71742 | 124.77190 | 8976 ft | 290 kts | 332° |
| 2026-04-30 20:36 | 1.75332 | 124.75245 | 10221 ft | 307 kts | 332° |
| 2026-04-30 20:37 | 1.77286 | 124.74191 | 10384 ft | 330 kts | 332° |
| 2026-04-30 20:37 | 1.79339 | 124.73083 | 10839 ft | 340 kts | 332° |
| 2026-04-30 20:37 | 1.81439 | 124.71950 | 11453 ft | 345 kts | 332° |
| 2026-04-30 20:37 | 1.83562 | 124.70804 | 12085 ft | 349 kts | 332° |
| 2026-04-30 20:38 | 1.85711 | 124.69644 | 12731 ft | 353 kts | 332° |
| 2026-04-30 20:38 | 1.87887 | 124.68486 | 13358 ft | 356 kts | 334° |
| 2026-04-30 20:38 | 1.90221 | 124.67620 | 13930 ft | 359 kts | 346° |
| 2026-04-30 20:39 | 1.95105 | 124.66506 | 15014 ft | 366 kts | 340° |
| 2026-04-30 20:39 | 1.97482 | 124.65467 | 15552 ft | 370 kts | 335° |
| 2026-04-30 20:39 | 1.99799 | 124.64397 | 16078 ft | 373 kts | 335° |
| 2026-04-30 20:40 | 2.04559 | 124.62195 | 17113 ft | 380 kts | 335° |
| 2026-04-30 20:40 | 2.06978 | 124.61076 | 17625 ft | 384 kts | 335° |
| 2026-04-30 20:40 | 2.09415 | 124.59952 | 18131 ft | 387 kts | 335° |
| 2026-04-30 20:41 | 2.14353 | 124.57676 | 19002 ft | 394 kts | 335° |
| 2026-04-30 20:41 | 2.16849 | 124.56523 | 19445 ft | 397 kts | 335° |
| 2026-04-30 20:41 | 2.19363 | 124.55360 | 19873 ft | 400 kts | 335° |
| 2026-04-30 20:41 | 2.21895 | 124.54189 | 20333 ft | 402 kts | 335° |
| 2026-04-30 20:42 | 2.24448 | 124.53011 | 20782 ft | 405 kts | 335° |
| 2026-04-30 20:42 | 2.26983 | 124.51843 | 21220 ft | 408 kts | 335° |
| 2026-04-30 20:42 | 2.32170 | 124.49445 | 22098 ft | 414 kts | 335° |
| 2026-04-30 20:43 | 2.34795 | 124.48231 | 22535 ft | 417 kts | 335° |
| 2026-04-30 20:43 | 2.37439 | 124.47009 | 22969 ft | 420 kts | 336° |
| 2026-04-30 20:43 | 2.40103 | 124.45779 | 23396 ft | 423 kts | 336° |
| 2026-04-30 20:44 | 2.45481 | 124.43297 | 24106 ft | 428 kts | 336° |
| 2026-04-30 20:44 | 2.48191 | 124.42047 | 24452 ft | 430 kts | 336° |
| 2026-04-30 20:44 | 2.53656 | 124.39526 | 25144 ft | 434 kts | 336° |
| 2026-04-30 20:45 | 2.59162 | 124.36981 | 25832 ft | 438 kts | 336° |
| 2026-04-30 20:45 | 2.61931 | 124.35699 | 26165 ft | 439 kts | 336° |
| 2026-04-30 20:45 | 2.64711 | 124.34416 | 26485 ft | 441 kts | 336° |
| 2026-04-30 20:46 | 2.73132 | 124.30533 | 27417 ft | 447 kts | 336° |
| 2026-04-30 20:46 | 2.75961 | 124.29224 | 27715 ft | 449 kts | 336° |
| 2026-04-30 20:47 | 2.81610 | 124.26613 | 28302 ft | 452 kts | 336° |
| 2026-04-30 20:47 | 2.84474 | 124.25288 | 28583 ft | 454 kts | 336° |
| 2026-04-30 20:48 | 2.90242 | 124.22619 | 29107 ft | 459 kts | 336° |
| 2026-04-30 20:48 | 2.93152 | 124.21275 | 29379 ft | 461 kts | 336° |
| 2026-04-30 20:48 | 2.96070 | 124.19928 | 29625 ft | 463 kts | 336° |
| 2026-04-30 20:48 | 2.98999 | 124.18576 | 29882 ft | 465 kts | 336° |
| 2026-04-30 20:49 | 3.01939 | 124.17219 | 30102 ft | 466 kts | 336° |
| 2026-04-30 20:49 | 3.04894 | 124.15857 | 30319 ft | 468 kts | 336° |
| 2026-04-30 20:49 | 3.07852 | 124.14492 | 30528 ft | 469 kts | 336° |
| 2026-04-30 20:50 | 3.13794 | 124.11744 | 30950 ft | 472 kts | 336° |
| 2026-04-30 20:50 | 3.16779 | 124.10363 | 31152 ft | 473 kts | 336° |
| 2026-04-30 20:50 | 3.19772 | 124.08979 | 31353 ft | 474 kts | 336° |
| 2026-04-30 20:50 | 3.22766 | 124.07593 | 31637 ft | 473 kts | 336° |
| 2026-04-30 20:51 | 3.25714 | 124.06225 | 31925 ft | 472 kts | 336° |
| 2026-04-30 20:51 | 3.31665 | 124.03469 | 32504 ft | 470 kts | 336° |
| 2026-04-30 20:51 | 3.34635 | 124.02096 | 32810 ft | 470 kts | 336° |
| 2026-04-30 20:52 | 3.37596 | 124.00725 | 33107 ft | 469 kts | 336° |
| 2026-04-30 20:52 | 3.40551 | 123.99357 | 33410 ft | 468 kts | 336° |
| 2026-04-30 20:52 | 3.46446 | 123.96628 | 34007 ft | 466 kts | 336° |
| 2026-04-30 20:53 | 3.49389 | 123.95265 | 34260 ft | 465 kts | 336° |
| 2026-04-30 20:53 | 3.51332 | 123.94365 | 34412 ft | 465 kts | 336° |
| 2026-04-30 20:53 | 3.54270 | 123.93007 | 34644 ft | 464 kts | 336° |
| 2026-04-30 20:54 | 3.60127 | 123.90294 | 35111 ft | 463 kts | 336° |
| 2026-04-30 20:54 | 3.63998 | 123.88500 | 35414 ft | 462 kts | 336° |
| 2026-04-30 20:54 | 3.65972 | 123.87588 | 35561 ft | 462 kts | 336° |
| 2026-04-30 20:55 | 3.71802 | 123.84892 | 35998 ft | 461 kts | 336° |
| 2026-04-30 20:55 | 3.74707 | 123.83548 | 36204 ft | 460 kts | 336° |
| 2026-04-30 20:55 | 3.77612 | 123.82203 | 36413 ft | 460 kts | 336° |
| 2026-04-30 20:56 | 3.83414 | 123.79517 | 36807 ft | 459 kts | 336° |
| 2026-04-30 20:56 | 3.86274 | 123.78193 | 37002 ft | 458 kts | 336° |
| 2026-04-30 20:56 | 3.92050 | 123.75521 | 37378 ft | 457 kts | 336° |
| 2026-04-30 20:57 | 3.94939 | 123.74184 | 37562 ft | 457 kts | 336° |
| 2026-04-30 20:57 | 3.97820 | 123.72851 | 37746 ft | 456 kts | 336° |
| 2026-04-30 20:57 | 4.00694 | 123.71502 | 37866 ft | 456 kts | 335° |
| 2026-04-30 20:58 | 4.09018 | 123.66890 | 37885 ft | 456 kts | 330° |
| 2026-04-30 20:58 | 4.14468 | 123.63657 | 37887 ft | 455 kts | 331° |
| 2026-04-30 20:59 | 4.22714 | 123.58950 | 37887 ft | 454 kts | 332° |
| 2026-04-30 21:00 | 4.33748 | 123.52751 | 37898 ft | 455 kts | 332° |
| 2026-04-30 21:01 | 4.41976 | 123.48080 | 37902 ft | 455 kts | 332° |
| 2026-04-30 21:02 | 4.50248 | 123.43393 | 37902 ft | 455 kts | 332° |
| 2026-04-30 21:02 | 4.55757 | 123.40267 | 37901 ft | 454 kts | 332° |
| 2026-04-30 21:03 | 4.61260 | 123.37148 | 37898 ft | 454 kts | 332° |
| 2026-04-30 21:03 | 4.66760 | 123.34039 | 37899 ft | 454 kts | 332° |
| 2026-04-30 21:04 | 4.72265 | 123.30925 | 37901 ft | 454 kts | 332° |
| 2026-04-30 21:04 | 4.80471 | 123.26266 | 37902 ft | 454 kts | 331° |
| 2026-04-30 21:05 | 4.85964 | 123.23143 | 37905 ft | 453 kts | 331° |
| 2026-04-30 21:05 | 4.91449 | 123.20036 | 37900 ft | 453 kts | 332° |
| 2026-04-30 21:06 | 4.96935 | 123.16929 | 37896 ft | 453 kts | 332° |
| 2026-04-30 21:06 | 5.02421 | 123.13823 | 37898 ft | 453 kts | 331° |
| 2026-04-30 21:07 | 5.07914 | 123.10704 | 37894 ft | 452 kts | 331° |
| 2026-04-30 21:07 | 5.13361 | 123.07608 | 37896 ft | 452 kts | 331° |
| 2026-04-30 21:08 | 5.18832 | 123.04499 | 37893 ft | 452 kts | 331° |
| 2026-04-30 21:08 | 5.24305 | 123.01393 | 37892 ft | 452 kts | 331° |
| 2026-04-30 21:09 | 5.29770 | 122.98291 | 37901 ft | 451 kts | 331° |
| 2026-04-30 21:09 | 5.35240 | 122.95179 | 37894 ft | 451 kts | 331° |
| 2026-04-30 21:10 | 5.40711 | 122.92074 | 37897 ft | 451 kts | 331° |
| 2026-04-30 21:10 | 5.46177 | 122.88962 | 37890 ft | 451 kts | 331° |
| 2026-04-30 21:11 | 5.51610 | 122.85873 | 37892 ft | 451 kts | 331° |
| 2026-04-30 21:11 | 5.57074 | 122.82772 | 37891 ft | 451 kts | 331° |
| 2026-04-30 21:12 | 5.62538 | 122.79670 | 37890 ft | 451 kts | 331° |
| 2026-04-30 21:12 | 5.67990 | 122.76565 | 37890 ft | 451 kts | 331° |
| 2026-04-30 21:13 | 5.73447 | 122.73456 | 37887 ft | 451 kts | 331° |
| 2026-04-30 21:13 | 5.78902 | 122.70343 | 37887 ft | 451 kts | 331° |
| 2026-04-30 21:14 | 5.84362 | 122.67246 | 37885 ft | 450 kts | 331° |
| 2026-04-30 21:14 | 5.89778 | 122.64165 | 37887 ft | 450 kts | 331° |
| 2026-04-30 21:15 | 5.95223 | 122.61060 | 37878 ft | 450 kts | 331° |
| 2026-04-30 21:15 | 6.00670 | 122.57955 | 37879 ft | 450 kts | 331° |
| 2026-04-30 21:16 | 6.06121 | 122.54854 | 37889 ft | 450 kts | 331° |
| 2026-04-30 21:16 | 6.11563 | 122.51757 | 37894 ft | 450 kts | 331° |
| 2026-04-30 21:17 | 6.17002 | 122.48655 | 37896 ft | 449 kts | 331° |
| 2026-04-30 21:17 | 6.22429 | 122.45560 | 37895 ft | 449 kts | 331° |
| 2026-04-30 21:18 | 6.27857 | 122.42449 | 37886 ft | 448 kts | 331° |
| 2026-04-30 21:18 | 6.33278 | 122.39356 | 37888 ft | 448 kts | 331° |
| 2026-04-30 21:19 | 6.38707 | 122.36271 | 37890 ft | 448 kts | 331° |
| 2026-04-30 21:19 | 6.44124 | 122.33180 | 37894 ft | 448 kts | 331° |
| 2026-04-30 21:20 | 6.49513 | 122.30100 | 37889 ft | 448 kts | 331° |
| 2026-04-30 21:20 | 6.54936 | 122.27007 | 37892 ft | 448 kts | 331° |
| 2026-04-30 21:21 | 6.60355 | 122.23910 | 37892 ft | 448 kts | 331° |
| 2026-04-30 21:22 | 6.68475 | 122.19265 | 37894 ft | 448 kts | 331° |
| 2026-04-30 21:23 | 6.79305 | 122.13080 | 37891 ft | 448 kts | 331° |
| 2026-04-30 21:23 | 6.87439 | 122.08438 | 37896 ft | 448 kts | 331° |
| 2026-04-30 21:24 | 6.93005 | 122.05659 | 37890 ft | 446 kts | 343° |
| 2026-04-30 21:24 | 6.99046 | 122.04350 | 37890 ft | 444 kts | 351° |
| 2026-04-30 21:25 | 7.08136 | 122.02669 | 37894 ft | 445 kts | 351° |
| 2026-04-30 21:26 | 7.17295 | 122.00983 | 37881 ft | 446 kts | 351° |
| 2026-04-30 21:27 | 7.26482 | 121.99304 | 37884 ft | 448 kts | 351° |
| 2026-04-30 21:27 | 7.32613 | 121.98178 | 37890 ft | 448 kts | 351° |
| 2026-04-30 21:28 | 7.41835 | 121.96484 | 37886 ft | 449 kts | 351° |
| 2026-04-30 21:29 | 7.51066 | 121.94796 | 37875 ft | 450 kts | 350° |
| 2026-04-30 21:30 | 7.66463 | 121.91964 | 37888 ft | 451 kts | 350° |
| 2026-04-30 21:31 | 7.81937 | 121.89126 | 37880 ft | 452 kts | 350° |
| 2026-04-30 21:32 | 7.91237 | 121.87410 | 37886 ft | 453 kts | 351° |
| 2026-04-30 21:32 | 7.97458 | 121.86265 | 37887 ft | 454 kts | 350° |
| 2026-04-30 21:33 | 8.06744 | 121.84563 | 37890 ft | 454 kts | 351° |
| 2026-04-30 21:34 | 8.12975 | 121.83422 | 37892 ft | 454 kts | 350° |
| 2026-04-30 21:34 | 8.22306 | 121.81693 | 37894 ft | 454 kts | 350° |
| 2026-04-30 21:35 | 8.28527 | 121.80555 | 37897 ft | 454 kts | 351° |
| 2026-04-30 21:35 | 8.34714 | 121.79426 | 37896 ft | 454 kts | 351° |
| 2026-04-30 21:36 | 8.40925 | 121.78277 | 37913 ft | 453 kts | 350° |
| 2026-04-30 21:37 | 8.53300 | 121.75985 | 37916 ft | 451 kts | 350° |
| 2026-04-30 21:37 | 8.59477 | 121.74847 | 37909 ft | 450 kts | 351° |
| 2026-04-30 21:38 | 8.65637 | 121.73712 | 37907 ft | 449 kts | 351° |
| 2026-04-30 21:38 | 8.71790 | 121.72586 | 37903 ft | 450 kts | 351° |
| 2026-04-30 21:39 | 8.77962 | 121.71443 | 37888 ft | 452 kts | 350° |
| 2026-04-30 21:39 | 8.84157 | 121.70290 | 37883 ft | 453 kts | 350° |
| 2026-04-30 21:40 | 8.90372 | 121.69137 | 37884 ft | 454 kts | 350° |
| 2026-04-30 21:40 | 8.96564 | 121.68000 | 37893 ft | 455 kts | 351° |
| 2026-04-30 21:41 | 9.02804 | 121.66852 | 37891 ft | 455 kts | 350° |
| 2026-04-30 21:41 | 9.07989 | 121.65897 | 37897 ft | 455 kts | 349° |
| 2026-04-30 21:42 | 9.14217 | 121.64744 | 37899 ft | 455 kts | 349° |
| 2026-04-30 21:42 | 9.20442 | 121.63579 | 37902 ft | 455 kts | 349° |
| 2026-04-30 21:43 | 9.26664 | 121.62422 | 37896 ft | 454 kts | 349° |
| 2026-04-30 21:43 | 9.32892 | 121.61278 | 37901 ft | 454 kts | 350° |
| 2026-04-30 21:44 | 9.39117 | 121.60137 | 37890 ft | 455 kts | 349° |
| 2026-04-30 21:44 | 9.45352 | 121.58974 | 37898 ft | 455 kts | 349° |
| 2026-04-30 21:45 | 9.51592 | 121.57809 | 37896 ft | 456 kts | 349° |
| 2026-04-30 21:45 | 9.57835 | 121.56653 | 37904 ft | 456 kts | 349° |
| 2026-04-30 21:46 | 9.64091 | 121.55495 | 37907 ft | 457 kts | 349° |
| 2026-04-30 21:46 | 9.70310 | 121.54334 | 37906 ft | 457 kts | 349° |
| 2026-04-30 21:47 | 9.76563 | 121.53168 | 37914 ft | 457 kts | 349° |
| 2026-04-30 21:47 | 9.82815 | 121.52009 | 37907 ft | 457 kts | 349° |
| 2026-04-30 21:48 | 9.89066 | 121.50859 | 37913 ft | 456 kts | 349° |
| 2026-04-30 21:48 | 9.95330 | 121.49695 | 37908 ft | 457 kts | 349° |
| 2026-04-30 21:49 | 10.01582 | 121.48532 | 37913 ft | 456 kts | 349° |
| 2026-04-30 21:49 | 10.07828 | 121.47361 | 37906 ft | 456 kts | 349° |
| 2026-04-30 21:50 | 10.14073 | 121.46192 | 37909 ft | 455 kts | 349° |
| 2026-04-30 21:50 | 10.20273 | 121.45041 | 37900 ft | 456 kts | 349° |
| 2026-04-30 21:51 | 10.26547 | 121.43874 | 37907 ft | 456 kts | 349° |
| 2026-04-30 21:51 | 10.32753 | 121.42719 | 37912 ft | 456 kts | 349° |
| 2026-04-30 21:52 | 10.38997 | 121.41555 | 37917 ft | 455 kts | 349° |
| 2026-04-30 21:52 | 10.45222 | 121.40393 | 37915 ft | 454 kts | 349° |
| 2026-04-30 21:53 | 10.51447 | 121.39228 | 37911 ft | 454 kts | 349° |
| 2026-04-30 21:53 | 10.57651 | 121.38056 | 37911 ft | 453 kts | 348° |
| 2026-04-30 21:54 | 10.63857 | 121.36871 | 37908 ft | 453 kts | 348° |
| 2026-04-30 21:54 | 10.70055 | 121.35683 | 37899 ft | 454 kts | 348° |
| 2026-04-30 21:55 | 10.76269 | 121.34487 | 37898 ft | 455 kts | 348° |
| 2026-04-30 21:55 | 10.82495 | 121.33288 | 37898 ft | 455 kts | 348° |
| 2026-04-30 21:56 | 10.88722 | 121.32099 | 37905 ft | 455 kts | 348° |
| 2026-04-30 21:56 | 10.94926 | 121.30921 | 37907 ft | 455 kts | 348° |
| 2026-04-30 21:57 | 11.01159 | 121.29732 | 37914 ft | 455 kts | 347° |
| 2026-04-30 21:57 | 11.07387 | 121.28552 | 37908 ft | 455 kts | 347° |
| 2026-04-30 21:58 | 11.13620 | 121.27396 | 37913 ft | 455 kts | 348° |
| 2026-04-30 21:58 | 11.19843 | 121.26231 | 37911 ft | 455 kts | 347° |
| 2026-04-30 21:59 | 11.26066 | 121.25056 | 37910 ft | 455 kts | 348° |
| 2026-04-30 22:00 | 11.35395 | 121.23301 | 37922 ft | 454 kts | 348° |
| 2026-04-30 22:00 | 11.44662 | 121.21562 | 37926 ft | 453 kts | 348° |
| 2026-04-30 22:01 | 11.50863 | 121.20399 | 37922 ft | 452 kts | 348° |
| 2026-04-30 22:01 | 11.57052 | 121.19228 | 37920 ft | 452 kts | 348° |
| 2026-04-30 22:02 | 11.63237 | 121.18058 | 37924 ft | 452 kts | 348° |
| 2026-04-30 22:02 | 11.69433 | 121.16893 | 37917 ft | 452 kts | 347° |
| 2026-04-30 22:03 | 11.75617 | 121.15728 | 37918 ft | 452 kts | 348° |
| 2026-04-30 22:03 | 11.81812 | 121.14564 | 37916 ft | 452 kts | 347° |
| 2026-04-30 22:04 | 11.88002 | 121.13396 | 37914 ft | 452 kts | 348° |
| 2026-04-30 22:05 | 11.97232 | 121.11643 | 37923 ft | 452 kts | 348° |
| 2026-04-30 22:05 | 12.03424 | 121.10469 | 37928 ft | 451 kts | 348° |
| 2026-04-30 22:06 | 12.09597 | 121.09303 | 37928 ft | 451 kts | 348° |
| 2026-04-30 22:06 | 12.18875 | 121.07561 | 37922 ft | 451 kts | 348° |
| 2026-04-30 22:07 | 12.25044 | 121.06400 | 37926 ft | 451 kts | 348° |
| 2026-04-30 22:07 | 12.31187 | 121.05238 | 37923 ft | 451 kts | 348° |
| 2026-04-30 22:08 | 12.37179 | 121.03456 | 37923 ft | 448 kts | 333° |
| 2026-04-30 22:08 | 12.42537 | 121.00251 | 37924 ft | 446 kts | 327° |
| 2026-04-30 22:09 | 12.47849 | 120.96947 | 37924 ft | 447 kts | 327° |
| 2026-04-30 22:09 | 12.53165 | 120.93646 | 37924 ft | 447 kts | 327° |
| 2026-04-30 22:10 | 12.58476 | 120.90335 | 37921 ft | 447 kts | 327° |
| 2026-04-30 22:10 | 12.63792 | 120.87018 | 37918 ft | 447 kts | 327° |
| 2026-04-30 22:11 | 12.71769 | 120.82042 | 37929 ft | 448 kts | 327° |
| 2026-04-30 22:12 | 12.77091 | 120.78715 | 37929 ft | 448 kts | 327° |
| 2026-04-30 22:12 | 12.82384 | 120.75412 | 37935 ft | 448 kts | 327° |
| 2026-04-30 22:13 | 12.87715 | 120.72086 | 37928 ft | 448 kts | 327° |
| 2026-04-30 22:13 | 12.93037 | 120.68756 | 37940 ft | 448 kts | 326° |
| 2026-04-30 22:14 | 12.98356 | 120.65429 | 37937 ft | 448 kts | 326° |
| 2026-04-30 22:14 | 13.03681 | 120.62094 | 37925 ft | 448 kts | 326° |
| 2026-04-30 22:15 | 13.09001 | 120.58762 | 37923 ft | 448 kts | 326° |
| 2026-04-30 22:15 | 13.14319 | 120.55430 | 37923 ft | 448 kts | 326° |
| 2026-04-30 22:16 | 13.19637 | 120.52097 | 37931 ft | 448 kts | 326° |
| 2026-04-30 22:17 | 13.30269 | 120.45423 | 37921 ft | 448 kts | 326° |
| 2026-04-30 22:17 | 13.38248 | 120.40410 | 37916 ft | 449 kts | 326° |
| 2026-04-30 22:18 | 13.46272 | 120.35364 | 36627 ft | 452 kts | 326° |
| 2026-04-30 22:19 | 13.51644 | 120.31995 | 35418 ft | 451 kts | 327° |
| 2026-04-30 22:19 | 13.54288 | 120.30336 | 34841 ft | 450 kts | 327° |
| 2026-04-30 22:19 | 13.59617 | 120.26977 | 33687 ft | 448 kts | 326° |
| 2026-04-30 22:20 | 13.62274 | 120.25306 | 33062 ft | 447 kts | 326° |
| 2026-04-30 22:20 | 13.67571 | 120.21971 | 31823 ft | 444 kts | 326° |
| 2026-04-30 22:20 | 13.70198 | 120.20314 | 31227 ft | 443 kts | 326° |
| 2026-04-30 22:21 | 13.72821 | 120.18660 | 30651 ft | 441 kts | 326° |
| 2026-04-30 22:21 | 13.75434 | 120.17011 | 30082 ft | 439 kts | 326° |
| 2026-04-30 22:21 | 13.78045 | 120.15365 | 29430 ft | 438 kts | 326° |
| 2026-04-30 22:21 | 13.80631 | 120.13731 | 28778 ft | 436 kts | 326° |
| 2026-04-30 22:22 | 13.83294 | 120.12231 | 28130 ft | 436 kts | 335° |
| 2026-04-30 22:22 | 13.85070 | 120.11605 | 27743 ft | 436 kts | 345° |
| 2026-04-30 22:22 | 13.89058 | 120.11193 | 26936 ft | 436 kts | 3° |
| 2026-04-30 22:22 | 13.92064 | 120.11550 | 26338 ft | 434 kts | 7° |
| 2026-04-30 22:23 | 13.95055 | 120.11942 | 25750 ft | 432 kts | 6° |
| 2026-04-30 22:23 | 13.97062 | 120.12205 | 25366 ft | 430 kts | 6° |
| 2026-04-30 22:23 | 14.00023 | 120.12591 | 24799 ft | 427 kts | 6° |
| 2026-04-30 22:23 | 14.02966 | 120.12973 | 24252 ft | 425 kts | 7° |
| 2026-04-30 22:24 | 14.05892 | 120.13350 | 23710 ft | 422 kts | 7° |
| 2026-04-30 22:24 | 14.08799 | 120.13720 | 23106 ft | 420 kts | 7° |
| 2026-04-30 22:24 | 14.11694 | 120.14087 | 22463 ft | 418 kts | 7° |
| 2026-04-30 22:24 | 14.14575 | 120.14450 | 21840 ft | 417 kts | 7° |
| 2026-04-30 22:25 | 14.17446 | 120.14814 | 21237 ft | 415 kts | 7° |
| 2026-04-30 22:25 | 14.20274 | 120.15176 | 20646 ft | 414 kts | 8° |
| 2026-04-30 22:25 | 14.23130 | 120.15546 | 20060 ft | 412 kts | 7° |
| 2026-04-30 22:25 | 14.25975 | 120.15917 | 19485 ft | 411 kts | 8° |
| 2026-04-30 22:26 | 14.31634 | 120.16653 | 18370 ft | 408 kts | 8° |
| 2026-04-30 22:26 | 14.34452 | 120.17016 | 17766 ft | 407 kts | 7° |
| 2026-04-30 22:26 | 14.37223 | 120.17373 | 17573 ft | 394 kts | 8° |
| 2026-04-30 22:27 | 14.39875 | 120.17715 | 17407 ft | 372 kts | 8° |
| 2026-04-30 22:27 | 14.42386 | 120.18037 | 16879 ft | 357 kts | 8° |
| 2026-04-30 22:27 | 14.47235 | 120.18663 | 15702 ft | 347 kts | 9° |
| 2026-04-30 22:28 | 14.51982 | 120.19276 | 14976 ft | 340 kts | 8° |
| 2026-04-30 22:28 | 14.54309 | 120.19575 | 14562 ft | 339 kts | 8° |
| 2026-04-30 22:29 | 14.61258 | 120.20473 | 13390 ft | 331 kts | 9° |
| 2026-04-30 22:29 | 14.63519 | 120.20764 | 12826 ft | 322 kts | 9° |
| 2026-04-30 22:30 | 14.72335 | 120.21902 | 11240 ft | 317 kts | 9° |
| 2026-04-30 22:31 | 14.78438 | 120.23698 | 11007 ft | 300 kts | 38° |
| 2026-04-30 22:32 | 14.83352 | 120.27640 | 11008 ft | 300 kts | 39° |
| 2026-04-30 22:32 | 14.86690 | 120.30321 | 9895 ft | 307 kts | 38° |
| 2026-04-30 22:33 | 14.91599 | 120.34254 | 8050 ft | 289 kts | 40° |
| 2026-04-30 22:33 | 14.94710 | 120.36746 | 6871 ft | 278 kts | 40° |
| 2026-04-30 22:34 | 14.98603 | 120.40835 | 5064 ft | 260 kts | 66° |
| 2026-04-30 22:35 | 14.99577 | 120.44350 | 3852 ft | 250 kts | 77° |
| 2026-04-30 22:36 | 15.00139 | 120.50701 | 3007 ft | 207 kts | 106° |
| 2026-04-30 22:36 | 14.99741 | 120.52131 | 3008 ft | 208 kts | 101° |
| 2026-04-30 22:37 | 14.99062 | 120.56508 | 3005 ft | 206 kts | 98° |
| 2026-04-30 22:37 | 14.98847 | 120.57973 | 3002 ft | 205 kts | 98° |
| 2026-04-30 22:37 | 14.98005 | 120.60750 | 3001 ft | 208 kts | 134° |
| 2026-04-30 22:38 | 14.95211 | 120.61394 | 2998 ft | 221 kts | 185° |
| 2026-04-30 22:38 | 14.92185 | 120.60810 | 2997 ft | 223 kts | 191° |
| 2026-04-30 22:39 | 14.90682 | 120.60398 | 2993 ft | 224 kts | 192° |
| 2026-04-30 22:39 | 14.88307 | 120.56743 | 2993 ft | 232 kts | 287° |
| 2026-04-30 22:40 | 14.91486 | 120.53136 | 2993 ft | 229 kts | 323° |
| 2026-04-30 22:41 | 14.95080 | 120.50018 | 3000 ft | 213 kts | 323° |
| 2026-04-30 22:41 | 14.97576 | 120.48602 | 3006 ft | 202 kts | 354° |
| 2026-04-30 22:42 | 15.02337 | 120.49788 | 2996 ft | 151 kts | 26° |
| 2026-04-30 22:43 | 15.04239 | 120.50540 | 3001 ft | 144 kts | 26° |
| 2026-04-30 22:43 | 15.06110 | 120.51267 | 3075 ft | 140 kts | 25° |
| 2026-04-30 22:44 | 15.07954 | 120.51963 | 2966 ft | 140 kts | 26° |
| 2026-04-30 22:45 | 15.11561 | 120.53392 | 1945 ft | 138 kts | 25° |
| 2026-04-30 22:45 | 15.13339 | 120.54129 | 1502 ft | 139 kts | 24° |
| 2026-04-30 22:46 | 15.15150 | 120.54847 | 1058 ft | 140 kts | 20° |
| 2026-04-30 22:47 | 15.18650 | 120.56263 | 439 ft | 99 kts | 21° |
| 2026-04-30 22:47 | 15.19572 | 120.56623 | 432 ft | 33 kts | 20° |
| 2026-04-30 22:48 | 15.19657 | 120.56521 | 436 ft | 15 kts | 289° |
| 2026-04-30 22:49 | 15.19684 | 120.56447 | 432 ft | 0 kts | 292° |
| 2026-04-30 22:49 | 15.19660 | 120.56363 | 426 ft | 13 kts | 202° |
| 2026-04-30 22:50 | 15.19458 | 120.56170 | 436 ft | 7 kts | 291° |
| 2026-04-30 22:51 | 15.19469 | 120.56075 | 428 ft | 7 kts | 224° |
| 2026-04-30 22:51 | 15.19402 | 120.56006 | 429 ft | 2 kts | 293° |
| 2026-04-30 22:52 | 15.19407 | 120.55994 | 425 ft | 1 kts | 291° |
| 2026-04-30 22:52 | 15.19415 | 120.55972 | 429 ft | 0 kts | 290° |